sensor_id;sensor_type;location;lat;lon;timestamp;P1;P2;P0
62591;PMS5003;48659;41.622;2.276;2023-03-17T00:00:38;10;7;
62591;PMS5003;48659;41.622;2.276;2023-03-17T00:03:09;9;9;
62591;PMS5003;48659;41.622;2.276;2023-03-17T00:05:42;6;6;
62591;PMS5003;48659;41.622;2.276;2023-03-17T00:08:12;14;9;
62591;PMS5003;48659;41.622;2.276;2023-03-17T00:10:45;30;22;
62591;PMS5003;48659;41.622;2.276;2023-03-17T00:13:13;25;16;
62591;PMS5003;48659;41.622;2.276;2023-03-17T00:15:41;21;17;
62591;PMS5003;48659;41.622;2.276;2023-03-17T00:18:09;20;14;
62591;PMS5003;48659;41.622;2.276;2023-03-17T00:20:40;33;20;
62591;PMS5003;48659;41.622;2.276;2023-03-17T00:23:08;37;25;
62591;PMS5003;48659;41.622;2.276;2023-03-17T00:25:41;30;24;
62591;PMS5003;48659;41.622;2.276;2023-03-17T00:28:13;16;12;
62591;PMS5003;48659;41.622;2.276;2023-03-17T00:30:43;9;9;
62591;PMS5003;48659;41.622;2.276;2023-03-17T00:33:11;6;6;
62591;PMS5003;48659;41.622;2.276;2023-03-17T00:35:39;8;6;
62591;PMS5003;48659;41.622;2.276;2023-03-17T00:38:09;7;6;
62591;PMS5003;48659;41.622;2.276;2023-03-17T00:40:40;9;8;
62591;PMS5003;48659;41.622;2.276;2023-03-17T00:43:08;9;7;
62591;PMS5003;48659;41.622;2.276;2023-03-17T00:45:35;6;6;
62591;PMS5003;48659;41.622;2.276;2023-03-17T00:48:05;11;8;
62591;PMS5003;48659;41.622;2.276;2023-03-17T00:50:39;11;8;
62591;PMS5003;48659;41.622;2.276;2023-03-17T00:53:09;7;6;
62591;PMS5003;48659;41.622;2.276;2023-03-17T00:55:37;9;9;
62591;PMS5003;48659;41.622;2.276;2023-03-17T00:58:09;6;6;
62591;PMS5003;48659;41.622;2.276;2023-03-17T01:00:38;21;17;
62591;PMS5003;48659;41.622;2.276;2023-03-17T01:03:06;25;16;
62591;PMS5003;48659;41.622;2.276;2023-03-17T01:05:37;13;13;
62591;PMS5003;48659;41.622;2.276;2023-03-17T01:08:06;15;13;
62591;PMS5003;48659;41.622;2.276;2023-03-17T01:10:34;17;12;
62591;PMS5003;48659;41.622;2.276;2023-03-17T01:13:03;11;11;
62591;PMS5003;48659;41.622;2.276;2023-03-17T01:15:32;13;10;
62591;PMS5003;48659;41.622;2.276;2023-03-17T01:18:00;13;12;
62591;PMS5003;48659;41.622;2.276;2023-03-17T01:20:29;25;17;
62591;PMS5003;48659;41.622;2.276;2023-03-17T01:22:58;28;19;
62591;PMS5003;48659;41.622;2.276;2023-03-17T01:25:26;16;12;
62591;PMS5003;48659;41.622;2.276;2023-03-17T01:27:54;14;11;
62591;PMS5003;48659;41.622;2.276;2023-03-17T01:30:24;26;20;
62591;PMS5003;48659;41.622;2.276;2023-03-17T01:32:54;29;24;
62591;PMS5003;48659;41.622;2.276;2023-03-17T01:35:23;28;24;
62591;PMS5003;48659;41.622;2.276;2023-03-17T01:37:51;30;21;
62591;PMS5003;48659;41.622;2.276;2023-03-17T01:40:20;32;21;
62591;PMS5003;48659;41.622;2.276;2023-03-17T01:42:51;30;25;
62591;PMS5003;48659;41.622;2.276;2023-03-17T01:46:25;31;24;
62591;PMS5003;48659;41.622;2.276;2023-03-17T01:48:56;30;17;
62591;PMS5003;48659;41.622;2.276;2023-03-17T01:51:30;23;18;
62591;PMS5003;48659;41.622;2.276;2023-03-17T01:54:03;19;18;
62591;PMS5003;48659;41.622;2.276;2023-03-17T01:56:34;19;18;
62591;PMS5003;48659;41.622;2.276;2023-03-17T01:59:04;17;14;
62591;PMS5003;48659;41.622;2.276;2023-03-17T02:01:37;13;9;
62591;PMS5003;48659;41.622;2.276;2023-03-17T02:04:09;7;7;
62591;PMS5003;48659;41.622;2.276;2023-03-17T02:06:37;11;8;
62591;PMS5003;48659;41.622;2.276;2023-03-17T02:09:05;16;13;
62591;PMS5003;48659;41.622;2.276;2023-03-17T02:11:33;12;11;
62591;PMS5003;48659;41.622;2.276;2023-03-17T02:14:01;15;12;
62591;PMS5003;48659;41.622;2.276;2023-03-17T02:16:29;12;10;
62591;PMS5003;48659;41.622;2.276;2023-03-17T02:18:57;12;11;
62591;PMS5003;48659;41.622;2.276;2023-03-17T02:21:27;11;9;
62591;PMS5003;48659;41.622;2.276;2023-03-17T02:24:00;10;10;
62591;PMS5003;48659;41.622;2.276;2023-03-17T02:26:31;28;19;
62591;PMS5003;48659;41.622;2.276;2023-03-17T02:29:00;28;18;
62591;PMS5003;48659;41.622;2.276;2023-03-17T02:31:28;18;13;
62591;PMS5003;48659;41.622;2.276;2023-03-17T02:33:56;13;10;
62591;PMS5003;48659;41.622;2.276;2023-03-17T02:36:25;12;10;
62591;PMS5003;48659;41.622;2.276;2023-03-17T02:38:53;12;12;
62591;PMS5003;48659;41.622;2.276;2023-03-17T02:41:20;14;14;
62591;PMS5003;48659;41.622;2.276;2023-03-17T02:43:51;9;9;
62591;PMS5003;48659;41.622;2.276;2023-03-17T02:46:19;9;8;
62591;PMS5003;48659;41.622;2.276;2023-03-17T02:48:46;17;14;
62591;PMS5003;48659;41.622;2.276;2023-03-17T02:51:14;14;8;
62591;PMS5003;48659;41.622;2.276;2023-03-17T02:53:42;10;10;
62591;PMS5003;48659;41.622;2.276;2023-03-17T02:56:10;9;9;
62591;PMS5003;48659;41.622;2.276;2023-03-17T02:58:38;8;6;
62591;PMS5003;48659;41.622;2.276;2023-03-17T03:01:06;12;9;
62591;PMS5003;48659;41.622;2.276;2023-03-17T03:03:34;8;8;
62591;PMS5003;48659;41.622;2.276;2023-03-17T03:06:01;14;12;
62591;PMS5003;48659;41.622;2.276;2023-03-17T03:08:29;11;9;
62591;PMS5003;48659;41.622;2.276;2023-03-17T03:10:57;13;12;
62591;PMS5003;48659;41.622;2.276;2023-03-17T03:13:24;15;13;
62591;PMS5003;48659;41.622;2.276;2023-03-17T03:15:51;16;13;
62591;PMS5003;48659;41.622;2.276;2023-03-17T03:18:18;16;15;
62591;PMS5003;48659;41.622;2.276;2023-03-17T03:20:46;15;13;
62591;PMS5003;48659;41.622;2.276;2023-03-17T03:23:16;17;13;
62591;PMS5003;48659;41.622;2.276;2023-03-17T03:25:44;16;13;
62591;PMS5003;48659;41.622;2.276;2023-03-17T03:28:11;28;22;
62591;PMS5003;48659;41.622;2.276;2023-03-17T03:30:39;19;15;
62591;PMS5003;48659;41.622;2.276;2023-03-17T03:33:10;13;12;
62591;PMS5003;48659;41.622;2.276;2023-03-17T03:35:39;10;10;
62591;PMS5003;48659;41.622;2.276;2023-03-17T03:38:23;17;11;
62591;PMS5003;48659;41.622;2.276;2023-03-17T03:40:51;17;13;
62591;PMS5003;48659;41.622;2.276;2023-03-17T03:43:18;23;19;
62591;PMS5003;48659;41.622;2.276;2023-03-17T03:45:46;24;18;
62591;PMS5003;48659;41.622;2.276;2023-03-17T03:48:14;33;24;
62591;PMS5003;48659;41.622;2.276;2023-03-17T03:50:41;23;19;
62591;PMS5003;48659;41.622;2.276;2023-03-17T03:53:15;20;16;
62591;PMS5003;48659;41.622;2.276;2023-03-17T03:55:44;18;14;
62591;PMS5003;48659;41.622;2.276;2023-03-17T03:58:15;18;16;
62591;PMS5003;48659;41.622;2.276;2023-03-17T04:00:43;19;18;
62591;PMS5003;48659;41.622;2.276;2023-03-17T04:03:11;17;14;
62591;PMS5003;48659;41.622;2.276;2023-03-17T04:05:38;10;9;
62591;PMS5003;48659;41.622;2.276;2023-03-17T04:08:06;10;10;
62591;PMS5003;48659;41.622;2.276;2023-03-17T04:10:34;15;14;
62591;PMS5003;48659;41.622;2.276;2023-03-17T04:13:01;15;12;
62591;PMS5003;48659;41.622;2.276;2023-03-17T04:15:29;17;14;
62591;PMS5003;48659;41.622;2.276;2023-03-17T04:17:56;16;13;
62591;PMS5003;48659;41.622;2.276;2023-03-17T04:20:24;22;17;
62591;PMS5003;48659;41.622;2.276;2023-03-17T04:22:51;24;21;
62591;PMS5003;48659;41.622;2.276;2023-03-17T04:25:18;18;16;
62591;PMS5003;48659;41.622;2.276;2023-03-17T04:27:45;21;20;
62591;PMS5003;48659;41.622;2.276;2023-03-17T04:30:14;20;19;
62591;PMS5003;48659;41.622;2.276;2023-03-17T04:32:41;23;19;
62591;PMS5003;48659;41.622;2.276;2023-03-17T04:35:10;17;12;
62591;PMS5003;48659;41.622;2.276;2023-03-17T04:37:40;22;18;
62591;PMS5003;48659;41.622;2.276;2023-03-17T04:40:09;17;12;
62591;PMS5003;48659;41.622;2.276;2023-03-17T04:42:39;11;10;
62591;PMS5003;48659;41.622;2.276;2023-03-17T04:45:08;11;11;
62591;PMS5003;48659;41.622;2.276;2023-03-17T04:47:38;10;9;
62591;PMS5003;48659;41.622;2.276;2023-03-17T04:50:05;8;8;
62591;PMS5003;48659;41.622;2.276;2023-03-17T04:52:33;10;8;
62591;PMS5003;48659;41.622;2.276;2023-03-17T04:55:00;9;8;
62591;PMS5003;48659;41.622;2.276;2023-03-17T04:57:27;15;12;
62591;PMS5003;48659;41.622;2.276;2023-03-17T04:59:54;16;13;
62591;PMS5003;48659;41.622;2.276;2023-03-17T05:02:22;15;14;
62591;PMS5003;48659;41.622;2.276;2023-03-17T05:04:50;15;14;
62591;PMS5003;48659;41.622;2.276;2023-03-17T05:07:17;18;15;
62591;PMS5003;48659;41.622;2.276;2023-03-17T05:09:45;17;15;
62591;PMS5003;48659;41.622;2.276;2023-03-17T05:12:16;18;17;
62591;PMS5003;48659;41.622;2.276;2023-03-17T05:14:43;25;24;
62591;PMS5003;48659;41.622;2.276;2023-03-17T05:17:16;21;20;
62591;PMS5003;48659;41.622;2.276;2023-03-17T05:19:43;25;20;
62591;PMS5003;48659;41.622;2.276;2023-03-17T05:22:16;28;21;
62591;PMS5003;48659;41.622;2.276;2023-03-17T05:24:43;23;20;
62591;PMS5003;48659;41.622;2.276;2023-03-17T05:27:17;26;22;
62591;PMS5003;48659;41.622;2.276;2023-03-17T05:29:44;20;17;
62591;PMS5003;48659;41.622;2.276;2023-03-17T05:32:11;22;20;
62591;PMS5003;48659;41.622;2.276;2023-03-17T05:34:39;26;24;
62591;PMS5003;48659;41.622;2.276;2023-03-17T05:37:07;17;17;
62591;PMS5003;48659;41.622;2.276;2023-03-17T05:39:34;20;18;
62591;PMS5003;48659;41.622;2.276;2023-03-17T05:42:01;27;22;
62591;PMS5003;48659;41.622;2.276;2023-03-17T05:44:29;20;17;
62591;PMS5003;48659;41.622;2.276;2023-03-17T05:46:57;18;16;
62591;PMS5003;48659;41.622;2.276;2023-03-17T05:49:25;24;21;
62591;PMS5003;48659;41.622;2.276;2023-03-17T05:51:53;22;22;
62591;PMS5003;48659;41.622;2.276;2023-03-17T05:54:21;27;20;
62591;PMS5003;48659;41.622;2.276;2023-03-17T05:56:49;34;27;
62591;PMS5003;48659;41.622;2.276;2023-03-17T05:59:16;29;24;
62591;PMS5003;48659;41.622;2.276;2023-03-17T06:01:44;23;20;
62591;PMS5003;48659;41.622;2.276;2023-03-17T06:04:16;21;18;
62591;PMS5003;48659;41.622;2.276;2023-03-17T06:06:44;13;10;
62591;PMS5003;48659;41.622;2.276;2023-03-17T06:09:11;14;10;
62591;PMS5003;48659;41.622;2.276;2023-03-17T06:11:39;10;8;
62591;PMS5003;48659;41.622;2.276;2023-03-17T06:14:06;12;11;
62591;PMS5003;48659;41.622;2.276;2023-03-17T06:16:35;10;10;
62591;PMS5003;48659;41.622;2.276;2023-03-17T06:19:02;13;11;
62591;PMS5003;48659;41.622;2.276;2023-03-17T06:21:29;14;14;
62591;PMS5003;48659;41.622;2.276;2023-03-17T06:23:57;17;13;
62591;PMS5003;48659;41.622;2.276;2023-03-17T06:26:24;13;10;
62591;PMS5003;48659;41.622;2.276;2023-03-17T06:28:51;24;19;
62591;PMS5003;48659;41.622;2.276;2023-03-17T06:31:18;15;11;
62591;PMS5003;48659;41.622;2.276;2023-03-17T06:33:46;18;17;
62591;PMS5003;48659;41.622;2.276;2023-03-17T06:36:15;19;14;
62591;PMS5003;48659;41.622;2.276;2023-03-17T06:38:47;16;15;
62591;PMS5003;48659;41.622;2.276;2023-03-17T06:41:16;23;17;
62591;PMS5003;48659;41.622;2.276;2023-03-17T06:43:44;19;16;
62591;PMS5003;48659;41.622;2.276;2023-03-17T06:46:17;23;17;
62591;PMS5003;48659;41.622;2.276;2023-03-17T06:48:45;16;15;
62591;PMS5003;48659;41.622;2.276;2023-03-17T06:51:15;17;17;
62591;PMS5003;48659;41.622;2.276;2023-03-17T06:53:43;19;16;
62591;PMS5003;48659;41.622;2.276;2023-03-17T06:56:19;20;19;
62591;PMS5003;48659;41.622;2.276;2023-03-17T06:58:46;13;13;
62591;PMS5003;48659;41.622;2.276;2023-03-17T07:01:17;19;13;
62591;PMS5003;48659;41.622;2.276;2023-03-17T07:03:44;14;13;
62591;PMS5003;48659;41.622;2.276;2023-03-17T07:06:12;18;17;
62591;PMS5003;48659;41.622;2.276;2023-03-17T07:08:40;18;17;
62591;PMS5003;48659;41.622;2.276;2023-03-17T07:11:21;15;14;
62591;PMS5003;48659;41.622;2.276;2023-03-17T07:13:49;18;17;
62591;PMS5003;48659;41.622;2.276;2023-03-17T07:16:17;18;16;
62591;PMS5003;48659;41.622;2.276;2023-03-17T07:18:45;21;18;
62591;PMS5003;48659;41.622;2.276;2023-03-17T07:21:16;19;15;
62591;PMS5003;48659;41.622;2.276;2023-03-17T07:23:44;26;21;
62591;PMS5003;48659;41.622;2.276;2023-03-17T07:26:17;22;19;
62591;PMS5003;48659;41.622;2.276;2023-03-17T07:28:45;22;19;
62591;PMS5003;48659;41.622;2.276;2023-03-17T07:31:16;18;13;
62591;PMS5003;48659;41.622;2.276;2023-03-17T07:33:43;18;15;
62591;PMS5003;48659;41.622;2.276;2023-03-17T07:36:16;17;16;
62591;PMS5003;48659;41.622;2.276;2023-03-17T07:38:43;25;22;
62591;PMS5003;48659;41.622;2.276;2023-03-17T07:41:16;34;28;
62591;PMS5003;48659;41.622;2.276;2023-03-17T07:43:44;49;41;
62591;PMS5003;48659;41.622;2.276;2023-03-17T07:46:17;45;40;
62591;PMS5003;48659;41.622;2.276;2023-03-17T07:48:45;29;27;
62591;PMS5003;48659;41.622;2.276;2023-03-17T07:51:17;40;33;
62591;PMS5003;48659;41.622;2.276;2023-03-17T07:53:47;48;35;
62591;PMS5003;48659;41.622;2.276;2023-03-17T07:56:16;49;40;
62591;PMS5003;48659;41.622;2.276;2023-03-17T07:58:44;38;33;
62591;PMS5003;48659;41.622;2.276;2023-03-17T08:01:16;24;21;
62591;PMS5003;48659;41.622;2.276;2023-03-17T08:03:44;24;20;
62591;PMS5003;48659;41.622;2.276;2023-03-17T08:06:16;25;19;
62591;PMS5003;48659;41.622;2.276;2023-03-17T08:08:44;20;19;
62591;PMS5003;48659;41.622;2.276;2023-03-17T08:11:16;22;19;
62591;PMS5003;48659;41.622;2.276;2023-03-17T08:13:43;19;19;
62591;PMS5003;48659;41.622;2.276;2023-03-17T08:16:16;24;22;
62591;PMS5003;48659;41.622;2.276;2023-03-17T08:18:44;15;15;
62591;PMS5003;48659;41.622;2.276;2023-03-17T08:21:17;23;22;
62591;PMS5003;48659;41.622;2.276;2023-03-17T08:23:44;26;25;
62591;PMS5003;48659;41.622;2.276;2023-03-17T08:26:17;30;27;
62591;PMS5003;48659;41.622;2.276;2023-03-17T08:28:45;19;18;
62591;PMS5003;48659;41.622;2.276;2023-03-17T08:31:16;21;21;
62591;PMS5003;48659;41.622;2.276;2023-03-17T08:33:46;24;24;
62591;PMS5003;48659;41.622;2.276;2023-03-17T08:36:16;27;26;
62591;PMS5003;48659;41.622;2.276;2023-03-17T08:38:49;19;19;
62591;PMS5003;48659;41.622;2.276;2023-03-17T08:41:17;20;19;
62591;PMS5003;48659;41.622;2.276;2023-03-17T08:43:47;32;30;
62591;PMS5003;48659;41.622;2.276;2023-03-17T08:46:19;28;26;
62591;PMS5003;48659;41.622;2.276;2023-03-17T08:48:49;30;26;
62591;PMS5003;48659;41.622;2.276;2023-03-17T08:51:17;15;11;
62591;PMS5003;48659;41.622;2.276;2023-03-17T08:53:45;6;5;
62591;PMS5003;48659;41.622;2.276;2023-03-17T08:56:16;4;4;
62591;PMS5003;48659;41.622;2.276;2023-03-17T08:58:44;6;6;
62591;PMS5003;48659;41.622;2.276;2023-03-17T09:01:17;4;3;
62591;PMS5003;48659;41.622;2.276;2023-03-17T09:03:45;5;4;
62591;PMS5003;48659;41.622;2.276;2023-03-17T09:06:16;3;3;
62591;PMS5003;48659;41.622;2.276;2023-03-17T09:08:44;6;4;
62591;PMS5003;48659;41.622;2.276;2023-03-17T09:11:17;3;3;
62591;PMS5003;48659;41.622;2.276;2023-03-17T09:13:46;7;4;
62591;PMS5003;48659;41.622;2.276;2023-03-17T09:16:19;6;4;
62591;PMS5003;48659;41.622;2.276;2023-03-17T09:18:47;4;4;
62591;PMS5003;48659;41.622;2.276;2023-03-17T09:21:18;6;3;
62591;PMS5003;48659;41.622;2.276;2023-03-17T09:23:45;8;3;
62591;PMS5003;48659;41.622;2.276;2023-03-17T09:26:13;5;4;
62591;PMS5003;48659;41.622;2.276;2023-03-17T09:28:41;5;4;
62591;PMS5003;48659;41.622;2.276;2023-03-17T09:31:16;4;4;
62591;PMS5003;48659;41.622;2.276;2023-03-17T09:33:43;4;4;
62591;PMS5003;48659;41.622;2.276;2023-03-17T09:36:10;6;3;
62591;PMS5003;48659;41.622;2.276;2023-03-17T09:38:39;6;3;
62591;PMS5003;48659;41.622;2.276;2023-03-17T09:41:19;3;2;
62591;PMS5003;48659;41.622;2.276;2023-03-17T09:43:59;5;3;
62591;PMS5003;48659;41.622;2.276;2023-03-17T09:46:48;4;2;
62591;PMS5003;48659;41.622;2.276;2023-03-17T09:49:28;4;4;
62591;PMS5003;48659;41.622;2.276;2023-03-17T09:52:18;3;3;
62591;PMS5003;48659;41.622;2.276;2023-03-17T09:54:51;6;5;
62591;PMS5003;48659;41.622;2.276;2023-03-17T09:57:20;5;4;
62591;PMS5003;48659;41.622;2.276;2023-03-17T09:59:53;5;4;
62591;PMS5003;48659;41.622;2.276;2023-03-17T10:02:27;4;4;
62591;PMS5003;48659;41.622;2.276;2023-03-17T10:04:56;5;3;
62591;PMS5003;48659;41.622;2.276;2023-03-17T10:07:26;3;3;
62591;PMS5003;48659;41.622;2.276;2023-03-17T10:10:05;7;6;
62591;PMS5003;48659;41.622;2.276;2023-03-17T10:12:51;4;4;
62591;PMS5003;48659;41.622;2.276;2023-03-17T10:15:30;6;3;
62591;PMS5003;48659;41.622;2.276;2023-03-17T10:18:01;1;1;
62591;PMS5003;48659;41.622;2.276;2023-03-17T10:20:47;3;1;
62591;PMS5003;48659;41.622;2.276;2023-03-17T10:23:20;6;3;
62591;PMS5003;48659;41.622;2.276;2023-03-17T10:25:53;2;2;
62591;PMS5003;48659;41.622;2.276;2023-03-17T10:28:24;2;2;
62591;PMS5003;48659;41.622;2.276;2023-03-17T10:30:56;3;3;
62591;PMS5003;48659;41.622;2.276;2023-03-17T10:33:27;6;3;
62591;PMS5003;48659;41.622;2.276;2023-03-17T10:35:54;5;4;
62591;PMS5003;48659;41.622;2.276;2023-03-17T10:38:22;2;1;
62591;PMS5003;48659;41.622;2.276;2023-03-17T10:40:54;7;4;
62591;PMS5003;48659;41.622;2.276;2023-03-17T10:43:27;1;1;
62591;PMS5003;48659;41.622;2.276;2023-03-17T10:45:57;10;8;
62591;PMS5003;48659;41.622;2.276;2023-03-17T10:48:26;5;3;
62591;PMS5003;48659;41.622;2.276;2023-03-17T10:50:56;4;3;
62591;PMS5003;48659;41.622;2.276;2023-03-17T10:53:25;4;3;
62591;PMS5003;48659;41.622;2.276;2023-03-17T10:55:55;2;2;
62591;PMS5003;48659;41.622;2.276;2023-03-17T10:58:31;5;5;
62591;PMS5003;48659;41.622;2.276;2023-03-17T11:01:05;3;3;
62591;PMS5003;48659;41.622;2.276;2023-03-17T11:03:34;7;5;
62591;PMS5003;48659;41.622;2.276;2023-03-17T11:06:06;4;4;
62591;PMS5003;48659;41.622;2.276;2023-03-17T11:08:46;3;3;
62591;PMS5003;48659;41.622;2.276;2023-03-17T11:11:21;5;4;
62591;PMS5003;48659;41.622;2.276;2023-03-17T11:13:50;6;5;
62591;PMS5003;48659;41.622;2.276;2023-03-17T11:16:18;8;3;
62591;PMS5003;48659;41.622;2.276;2023-03-17T11:18:50;5;3;
62591;PMS5003;48659;41.622;2.276;2023-03-17T11:21:24;5;3;
62591;PMS5003;48659;41.622;2.276;2023-03-17T11:23:56;11;8;
62591;PMS5003;48659;41.622;2.276;2023-03-17T11:26:32;3;3;
62591;PMS5003;48659;41.622;2.276;2023-03-17T11:29:19;6;4;
62591;PMS5003;48659;41.622;2.276;2023-03-17T11:31:56;7;5;
62591;PMS5003;48659;41.622;2.276;2023-03-17T11:34:37;5;4;
62591;PMS5003;48659;41.622;2.276;2023-03-17T11:37:20;4;4;
62591;PMS5003;48659;41.622;2.276;2023-03-17T11:40:00;8;8;
62591;PMS5003;48659;41.622;2.276;2023-03-17T11:42:35;4;2;
62591;PMS5003;48659;41.622;2.276;2023-03-17T11:45:20;2;2;
62591;PMS5003;48659;41.622;2.276;2023-03-17T11:47:59;10;9;
62591;PMS5003;48659;41.622;2.276;2023-03-17T11:50:49;7;5;
62591;PMS5003;48659;41.622;2.276;2023-03-17T11:53:26;5;3;
62591;PMS5003;48659;41.622;2.276;2023-03-17T11:56:12;5;3;
62591;PMS5003;48659;41.622;2.276;2023-03-17T11:58:45;6;3;
62591;PMS5003;48659;41.622;2.276;2023-03-17T12:01:18;7;4;
62591;PMS5003;48659;41.622;2.276;2023-03-17T12:03:51;4;4;
62591;PMS5003;48659;41.622;2.276;2023-03-17T12:06:25;10;5;
62591;PMS5003;48659;41.622;2.276;2023-03-17T12:08:57;5;5;
62591;PMS5003;48659;41.622;2.276;2023-03-17T12:11:29;3;3;
62591;PMS5003;48659;41.622;2.276;2023-03-17T12:14:03;5;3;
62591;PMS5003;48659;41.622;2.276;2023-03-17T12:16:34;5;4;
62591;PMS5003;48659;41.622;2.276;2023-03-17T12:19:09;7;5;
62591;PMS5003;48659;41.622;2.276;2023-03-17T12:21:45;4;3;
62591;PMS5003;48659;41.622;2.276;2023-03-17T12:24:17;5;5;
62591;PMS5003;48659;41.622;2.276;2023-03-17T12:26:49;4;4;
62591;PMS5003;48659;41.622;2.276;2023-03-17T12:29:24;2;2;
62591;PMS5003;48659;41.622;2.276;2023-03-17T12:32:02;6;3;
62591;PMS5003;48659;41.622;2.276;2023-03-17T12:34:34;4;4;
62591;PMS5003;48659;41.622;2.276;2023-03-17T12:37:16;5;3;
62591;PMS5003;48659;41.622;2.276;2023-03-17T12:39:46;2;2;
62591;PMS5003;48659;41.622;2.276;2023-03-17T12:42:23;4;4;
62591;PMS5003;48659;41.622;2.276;2023-03-17T12:45:09;6;5;
62591;PMS5003;48659;41.622;2.276;2023-03-17T12:47:58;3;2;
62591;PMS5003;48659;41.622;2.276;2023-03-17T12:50:48;4;4;
62591;PMS5003;48659;41.622;2.276;2023-03-17T12:53:29;5;4;
62591;PMS5003;48659;41.622;2.276;2023-03-17T12:56:00;7;3;
62591;PMS5003;48659;41.622;2.276;2023-03-17T12:58:42;6;3;
62591;PMS5003;48659;41.622;2.276;2023-03-17T13:01:22;4;3;
62591;PMS5003;48659;41.622;2.276;2023-03-17T13:03:57;3;3;
62591;PMS5003;48659;41.622;2.276;2023-03-17T13:06:34;5;4;
62591;PMS5003;48659;41.622;2.276;2023-03-17T13:11:17;5;5;
62591;PMS5003;48659;41.622;2.276;2023-03-17T13:13:55;8;3;
62591;PMS5003;48659;41.622;2.276;2023-03-17T13:16:32;5;4;
62591;PMS5003;48659;41.622;2.276;2023-03-17T13:19:06;8;4;
62591;PMS5003;48659;41.622;2.276;2023-03-17T13:21:50;5;3;
62591;PMS5003;48659;41.622;2.276;2023-03-17T13:24:40;3;3;
62591;PMS5003;48659;41.622;2.276;2023-03-17T13:27:49;6;5;
62591;PMS5003;48659;41.622;2.276;2023-03-17T13:31:31;7;4;
62591;PMS5003;48659;41.622;2.276;2023-03-17T13:34:02;6;4;
62591;PMS5003;48659;41.622;2.276;2023-03-17T13:36:51;5;3;
62591;PMS5003;48659;41.622;2.276;2023-03-17T13:39:32;4;3;
62591;PMS5003;48659;41.622;2.276;2023-03-17T13:42:22;4;4;
62591;PMS5003;48659;41.622;2.276;2023-03-17T13:45:06;3;3;
62591;PMS5003;48659;41.622;2.276;2023-03-17T13:48:20;5;4;
62591;PMS5003;48659;41.622;2.276;2023-03-17T13:50:58;4;4;
62591;PMS5003;48659;41.622;2.276;2023-03-17T13:53:34;4;4;
62591;PMS5003;48659;41.622;2.276;2023-03-17T13:56:21;4;4;
62591;PMS5003;48659;41.622;2.276;2023-03-17T13:58:54;3;3;
62591;PMS5003;48659;41.622;2.276;2023-03-17T14:01:31;4;3;
62591;PMS5003;48659;41.622;2.276;2023-03-17T14:04:04;3;3;
62591;PMS5003;48659;41.622;2.276;2023-03-17T14:06:43;5;4;
62591;PMS5003;48659;41.622;2.276;2023-03-17T14:09:23;8;4;
62591;PMS5003;48659;41.622;2.276;2023-03-17T14:11:57;9;6;
62591;PMS5003;48659;41.622;2.276;2023-03-17T14:14:32;5;4;
62591;PMS5003;48659;41.622;2.276;2023-03-17T14:17:19;10;5;
62591;PMS5003;48659;41.622;2.276;2023-03-17T14:19:59;3;3;
62591;PMS5003;48659;41.622;2.276;2023-03-17T14:22:29;7;5;
62591;PMS5003;48659;41.622;2.276;2023-03-17T14:24:59;4;2;
62591;PMS5003;48659;41.622;2.276;2023-03-17T14:27:26;3;3;
62591;PMS5003;48659;41.622;2.276;2023-03-17T14:30:03;7;6;
62591;PMS5003;48659;41.622;2.276;2023-03-17T14:32:33;3;3;
62591;PMS5003;48659;41.622;2.276;2023-03-17T14:35:01;7;3;
62591;PMS5003;48659;41.622;2.276;2023-03-17T14:37:28;6;3;
62591;PMS5003;48659;41.622;2.276;2023-03-17T14:39:56;4;4;
62591;PMS5003;48659;41.622;2.276;2023-03-17T14:42:25;3;3;
62591;PMS5003;48659;41.622;2.276;2023-03-17T14:45:03;4;3;
62591;PMS5003;48659;41.622;2.276;2023-03-17T14:47:35;2;2;
62591;PMS5003;48659;41.622;2.276;2023-03-17T14:50:05;3;3;
62591;PMS5003;48659;41.622;2.276;2023-03-17T14:52:52;5;2;
62591;PMS5003;48659;41.622;2.276;2023-03-17T14:55:20;5;3;
62591;PMS5003;48659;41.622;2.276;2023-03-17T14:57:54;5;4;
62591;PMS5003;48659;41.622;2.276;2023-03-17T15:00:26;6;4;
62591;PMS5003;48659;41.622;2.276;2023-03-17T15:02:59;4;2;
62591;PMS5003;48659;41.622;2.276;2023-03-17T15:05:29;3;2;
62591;PMS5003;48659;41.622;2.276;2023-03-17T15:08:26;3;2;
62591;PMS5003;48659;41.622;2.276;2023-03-17T15:10:56;3;3;
62591;PMS5003;48659;41.622;2.276;2023-03-17T15:13:24;6;4;
62591;PMS5003;48659;41.622;2.276;2023-03-17T15:15:53;8;4;
62591;PMS5003;48659;41.622;2.276;2023-03-17T15:18:20;7;5;
62591;PMS5003;48659;41.622;2.276;2023-03-17T15:20:48;9;4;
62591;PMS5003;48659;41.622;2.276;2023-03-17T15:23:17;5;5;
62591;PMS5003;48659;41.622;2.276;2023-03-17T15:25:47;5;5;
62591;PMS5003;48659;41.622;2.276;2023-03-17T15:28:18;5;5;
62591;PMS5003;48659;41.622;2.276;2023-03-17T15:30:47;8;4;
62591;PMS5003;48659;41.622;2.276;2023-03-17T15:33:19;8;7;
62591;PMS5003;48659;41.622;2.276;2023-03-17T15:35:48;4;3;
62591;PMS5003;48659;41.622;2.276;2023-03-17T15:38:18;8;5;
62591;PMS5003;48659;41.622;2.276;2023-03-17T15:40:46;8;6;
62591;PMS5003;48659;41.622;2.276;2023-03-17T15:43:14;4;3;
62591;PMS5003;48659;41.622;2.276;2023-03-17T15:45:42;2;2;
62591;PMS5003;48659;41.622;2.276;2023-03-17T15:48:19;3;1;
62591;PMS5003;48659;41.622;2.276;2023-03-17T15:50:48;3;3;
62591;PMS5003;48659;41.622;2.276;2023-03-17T15:53:18;5;5;
62591;PMS5003;48659;41.622;2.276;2023-03-17T15:55:46;4;1;
62591;PMS5003;48659;41.622;2.276;2023-03-17T15:58:16;5;3;
62591;PMS5003;48659;41.622;2.276;2023-03-17T16:00:46;6;5;
62591;PMS5003;48659;41.622;2.276;2023-03-17T16:03:19;6;3;
62591;PMS5003;48659;41.622;2.276;2023-03-17T16:05:51;8;3;
62591;PMS5003;48659;41.622;2.276;2023-03-17T16:08:20;7;4;
62591;PMS5003;48659;41.622;2.276;2023-03-17T16:10:47;12;6;
62591;PMS5003;48659;41.622;2.276;2023-03-17T16:13:17;5;4;
62591;PMS5003;48659;41.622;2.276;2023-03-17T16:15:46;4;3;
62591;PMS5003;48659;41.622;2.276;2023-03-17T16:18:21;6;4;
62591;PMS5003;48659;41.622;2.276;2023-03-17T16:20:56;8;5;
62591;PMS5003;48659;41.622;2.276;2023-03-17T16:23:26;2;2;
62591;PMS5003;48659;41.622;2.276;2023-03-17T16:25:56;3;3;
62591;PMS5003;48659;41.622;2.276;2023-03-17T16:28:25;7;4;
62591;PMS5003;48659;41.622;2.276;2023-03-17T16:30:55;6;4;
62591;PMS5003;48659;41.622;2.276;2023-03-17T16:33:25;5;5;
62591;PMS5003;48659;41.622;2.276;2023-03-17T16:35:55;3;3;
62591;PMS5003;48659;41.622;2.276;2023-03-17T16:38:24;3;3;
62591;PMS5003;48659;41.622;2.276;2023-03-17T16:40:53;7;3;
62591;PMS5003;48659;41.622;2.276;2023-03-17T16:43:22;6;5;
62591;PMS5003;48659;41.622;2.276;2023-03-17T16:45:52;9;7;
62591;PMS5003;48659;41.622;2.276;2023-03-17T16:48:21;5;5;
62591;PMS5003;48659;41.622;2.276;2023-03-17T16:50:50;6;3;
62591;PMS5003;48659;41.622;2.276;2023-03-17T16:53:17;5;2;
62591;PMS5003;48659;41.622;2.276;2023-03-17T16:55:45;7;5;
62591;PMS5003;48659;41.622;2.276;2023-03-17T16:58:17;9;4;
62591;PMS5003;48659;41.622;2.276;2023-03-17T17:00:48;7;4;
62591;PMS5003;48659;41.622;2.276;2023-03-17T17:03:18;7;4;
62591;PMS5003;48659;41.622;2.276;2023-03-17T17:05:46;7;4;
62591;PMS5003;48659;41.622;2.276;2023-03-17T17:08:17;7;4;